createdAt,value
2017-12-30T00:00:49.298Z,0
2017-12-30T00:01:58.120Z,0
2017-12-30T00:03:06.945Z,0
2017-12-30T00:04:15.768Z,0
2017-12-30T00:05:24.593Z,0
2017-12-30T00:06:33.416Z,0
2017-12-30T00:07:42.239Z,0
2017-12-30T00:08:51.065Z,0
2017-12-30T00:09:59.888Z,0
2017-12-30T00:11:08.709Z,0
2017-12-30T00:12:17.534Z,0
2017-12-30T00:13:26.357Z,0
2017-12-30T00:14:35.182Z,0
2017-12-30T00:15:44.005Z,0
2017-12-30T00:16:52.830Z,0
2017-12-30T00:18:01.654Z,0
2017-12-30T00:19:10.476Z,0
2017-12-30T00:20:19.302Z,0
2017-12-30T00:21:28.277Z,0
2017-12-30T00:22:37.102Z,0
2017-12-30T00:23:45.925Z,0
2017-12-30T00:24:54.749Z,0
2017-12-30T00:26:03.571Z,0
2017-12-30T00:27:12.396Z,0
2017-12-30T00:28:21.219Z,0
2017-12-30T00:29:30.043Z,0
2017-12-30T00:30:38.864Z,0
2017-12-30T00:31:47.688Z,0
2017-12-30T00:32:56.511Z,0
2017-12-30T00:34:05.333Z,0
2017-12-30T00:35:14.156Z,0
2017-12-30T00:36:22.978Z,0
2017-12-30T00:37:31.802Z,0
2017-12-30T00:38:40.875Z,0
2017-12-30T00:39:49.700Z,0
2017-12-30T00:40:58.820Z,0
2017-12-30T00:42:07.644Z,0
2017-12-30T00:43:16.467Z,0
2017-12-30T00:44:25.289Z,0
2017-12-30T00:45:34.114Z,0
2017-12-30T00:46:42.935Z,0
2017-12-30T00:47:51.759Z,0
2017-12-30T00:49:00.585Z,0
2017-12-30T00:50:09.680Z,0
2017-12-30T00:51:18.506Z,0
2017-12-30T00:52:27.330Z,0
2017-12-30T00:53:36.153Z,0
2017-12-30T00:54:44.976Z,0
2017-12-30T00:55:53.800Z,0
2017-12-30T00:57:02.626Z,0
2017-12-30T00:58:11.448Z,0
2017-12-30T00:59:20.276Z,0
2017-12-30T01:00:29.369Z,0
2017-12-30T01:01:38.342Z,0
2017-12-30T01:02:47.170Z,0
2017-12-30T01:03:56.267Z,0
2017-12-30T01:05:05.090Z,0
2017-12-30T01:06:13.914Z,0
2017-12-30T01:07:22.790Z,0
2017-12-30T01:08:31.612Z,0
2017-12-30T01:09:40.439Z,0
2017-12-30T01:10:49.259Z,0
2017-12-30T01:11:58.082Z,0
2017-12-30T01:13:06.908Z,0
2017-12-30T01:14:16.006Z,0
2017-12-30T01:15:24.830Z,0
2017-12-30T01:16:33.652Z,0
2017-12-30T01:17:42.478Z,0
2017-12-30T01:18:51.455Z,0
2017-12-30T01:20:00.279Z,0
2017-12-30T01:21:09.100Z,0
2017-12-30T01:22:17.922Z,0
2017-12-30T01:23:26.746Z,0
2017-12-30T01:24:35.719Z,0
2017-12-30T01:25:44.544Z,0
2017-12-30T01:26:53.368Z,0
2017-12-30T01:28:02.192Z,0
2017-12-30T01:29:11.290Z,0
2017-12-30T01:30:20.217Z,0
2017-12-30T01:31:29.039Z,0
2017-12-30T01:32:37.860Z,0
2017-12-30T01:33:46.680Z,0
2017-12-30T01:34:55.508Z,0
2017-12-30T01:36:04.495Z,0
2017-12-30T01:37:13.308Z,0
2017-12-30T01:38:22.128Z,0
2017-12-30T01:39:30.950Z,0
2017-12-30T01:40:39.775Z,0
2017-12-30T01:41:48.749Z,0
2017-12-30T01:42:57.576Z,0
2017-12-30T01:44:06.399Z,0
2017-12-30T01:45:15.224Z,0
2017-12-30T01:46:24.047Z,0
2017-12-30T01:47:32.867Z,0
2017-12-30T01:48:42.123Z,0
2017-12-30T01:49:50.945Z,0
2017-12-30T01:50:59.769Z,0
2017-12-30T01:52:08.591Z,0
2017-12-30T01:53:17.465Z,0
2017-12-30T01:54:26.288Z,0
2017-12-30T01:55:35.111Z,0
2017-12-30T01:56:44.208Z,0
2017-12-30T01:57:53.038Z,0
2017-12-30T01:59:02.285Z,0
2017-12-30T02:00:11.109Z,0
2017-12-30T02:01:19.942Z,0
2017-12-30T02:02:28.756Z,0
2017-12-30T02:03:37.581Z,0
2017-12-30T02:04:46.404Z,0
2017-12-30T02:05:55.232Z,0
2017-12-30T02:07:04.056Z,0
2017-12-30T02:08:12.879Z,0
2017-12-30T02:09:21.708Z,0
2017-12-30T02:10:30.804Z,0
2017-12-30T02:11:39.906Z,0
2017-12-30T02:12:49.014Z,0
2017-12-30T02:13:57.836Z,0
2017-12-30T02:15:06.661Z,0
2017-12-30T02:16:15.786Z,0
2017-12-30T02:17:24.608Z,0
2017-12-30T02:18:33.433Z,0
2017-12-30T02:19:42.532Z,0
2017-12-30T02:20:51.357Z,0
2017-12-30T02:22:00.481Z,0
2017-12-30T02:23:09.306Z,0
2017-12-30T02:24:18.406Z,0
2017-12-30T02:25:27.235Z,0
2017-12-30T02:26:36.058Z,0
2017-12-30T02:27:44.881Z,0
2017-12-30T02:28:53.706Z,0
2017-12-30T02:30:02.536Z,0
2017-12-30T02:31:11.633Z,0
2017-12-30T02:32:20.457Z,0
2017-12-30T02:33:29.279Z,0
2017-12-30T02:34:38.102Z,0
2017-12-30T02:35:46.932Z,0
2017-12-30T02:36:56.030Z,0
2017-12-30T02:38:04.854Z,0
2017-12-30T02:39:13.781Z,0
2017-12-30T02:40:22.652Z,0
2017-12-30T02:41:31.478Z,0
2017-12-30T02:42:40.303Z,0
2017-12-30T02:43:49.128Z,0
2017-12-30T02:44:58.260Z,0
2017-12-30T02:46:07.080Z,0
2017-12-30T02:47:16.177Z,0
2017-12-30T02:48:25.010Z,0
2017-12-30T02:49:33.833Z,0
2017-12-30T02:50:42.807Z,0
2017-12-30T02:51:51.631Z,0
2017-12-30T02:53:00.455Z,0
2017-12-30T02:54:09.279Z,0
2017-12-30T02:55:18.103Z,0
2017-12-30T02:56:27.081Z,0
2017-12-30T02:57:35.907Z,0
2017-12-30T02:58:44.731Z,0
2017-12-30T02:59:53.555Z,0
2017-12-30T03:01:02.385Z,0
2017-12-30T03:02:11.207Z,0
2017-12-30T03:03:20.307Z,0
2017-12-30T03:04:29.128Z,0
2017-12-30T03:05:37.952Z,0
2017-12-30T03:06:46.779Z,0
2017-12-30T03:07:55.653Z,0
2017-12-30T03:09:04.475Z,0
2017-12-30T03:10:13.302Z,0
2017-12-30T03:11:22.123Z,0
2017-12-30T03:12:31.219Z,0
2017-12-30T03:13:40.046Z,0
2017-12-30T03:14:48.870Z,0
2017-12-30T03:15:57.695Z,0
2017-12-30T03:17:06.522Z,0
2017-12-30T03:18:15.349Z,0
2017-12-30T03:19:24.176Z,0
2017-12-30T03:20:32.997Z,0
2017-12-30T03:21:41.823Z,0
2017-12-30T03:22:50.647Z,0
2017-12-30T03:23:59.472Z,0
2017-12-30T03:25:08.297Z,0
2017-12-30T03:26:17.129Z,0
2017-12-30T03:27:26.498Z,0
2017-12-30T03:28:35.328Z,0
2017-12-30T03:29:44.155Z,0
2017-12-30T03:30:53.269Z,0
2017-12-30T03:32:02.087Z,0
2017-12-30T03:33:11.180Z,0
2017-12-30T03:34:20.003Z,0
2017-12-30T03:35:28.829Z,0
2017-12-30T03:36:37.753Z,0
2017-12-30T03:37:46.579Z,0
2017-12-30T03:38:55.406Z,0
2017-12-30T03:40:04.234Z,0
2017-12-30T03:41:13.061Z,0
2017-12-30T03:42:22.521Z,0
2017-12-30T03:43:31.345Z,0
2017-12-30T03:44:40.171Z,0
2017-12-30T03:45:48.995Z,0
2017-12-30T03:46:57.820Z,0
2017-12-30T03:48:07.121Z,0
2017-12-30T03:49:15.947Z,0
2017-12-30T03:50:24.770Z,0
2017-12-30T03:51:33.594Z,0
2017-12-30T03:52:42.420Z,0
2017-12-30T03:53:51.544Z,0
2017-12-30T03:55:00.367Z,0
2017-12-30T03:56:09.193Z,0
2017-12-30T03:57:18.017Z,0
2017-12-30T03:58:26.842Z,0
2017-12-30T03:59:35.666Z,0
2017-12-30T04:00:44.491Z,0
2017-12-30T04:01:53.317Z,0
2017-12-30T04:03:02.143Z,0
2017-12-30T04:04:10.970Z,0
2017-12-30T04:05:19.791Z,0
2017-12-30T04:06:28.890Z,0
2017-12-30T04:07:37.715Z,0
2017-12-30T04:08:46.539Z,0
2017-12-30T04:09:55.640Z,0
2017-12-30T04:11:04.518Z,0
2017-12-30T04:12:13.344Z,0
2017-12-30T04:13:22.170Z,0
2017-12-30T04:14:30.995Z,0
2017-12-30T04:15:39.843Z,0
2017-12-30T04:16:49.021Z,0
2017-12-30T04:17:57.845Z,0
2017-12-30T04:19:06.669Z,0
2017-12-30T04:20:15.497Z,0
2017-12-30T04:21:24.322Z,0
2017-12-30T04:22:33.245Z,0
2017-12-30T04:23:42.071Z,0
2017-12-30T04:24:50.894Z,0
2017-12-30T04:25:59.720Z,0
2017-12-30T04:27:08.546Z,0
2017-12-30T04:28:17.372Z,0
2017-12-30T04:29:26.196Z,0
2017-12-30T04:30:35.020Z,0
2017-12-30T04:31:43.843Z,0
2017-12-30T04:32:52.666Z,0
2017-12-30T04:34:01.493Z,0
2017-12-30T04:35:10.322Z,0
2017-12-30T04:36:19.140Z,0
2017-12-30T04:37:27.968Z,0
2017-12-30T04:38:36.792Z,0
2017-12-30T04:39:45.917Z,0
2017-12-30T04:40:54.741Z,0
2017-12-30T04:42:03.565Z,0
2017-12-30T04:43:12.388Z,0
2017-12-30T04:44:21.214Z,0
2017-12-30T04:45:30.038Z,0
2017-12-30T04:46:38.869Z,0
2017-12-30T04:47:47.686Z,0
2017-12-30T04:48:56.511Z,0
2017-12-30T04:50:05.335Z,0
2017-12-30T04:51:14.258Z,0
2017-12-30T04:52:23.404Z,0
2017-12-30T04:53:32.230Z,0
2017-12-30T04:54:41.054Z,0
2017-12-30T04:55:49.875Z,0
2017-12-30T04:56:59.002Z,0
2017-12-30T04:58:07.825Z,0
2017-12-30T04:59:16.649Z,0
2017-12-30T05:00:25.476Z,0
2017-12-30T05:01:34.296Z,0
2017-12-30T05:02:43.223Z,0
2017-12-30T05:03:52.063Z,0
2017-12-30T05:05:00.871Z,0
2017-12-30T05:06:09.698Z,0
2017-12-30T05:07:18.526Z,0
2017-12-30T05:08:27.750Z,0
2017-12-30T05:09:36.573Z,0
2017-12-30T05:10:45.399Z,0
2017-12-30T05:11:54.498Z,0
2017-12-30T05:13:03.324Z,0
2017-12-30T05:14:12.146Z,0
2017-12-30T05:15:20.972Z,0
2017-12-30T05:16:29.799Z,0
2017-12-30T05:17:38.625Z,0
2017-12-30T05:18:47.448Z,0
2017-12-30T05:19:56.374Z,0
2017-12-30T05:21:05.197Z,0
2017-12-30T05:22:14.024Z,0
2017-12-30T05:23:22.849Z,0
2017-12-30T05:24:31.677Z,0
2017-12-30T05:25:41.121Z,0
2017-12-30T05:26:49.947Z,0
2017-12-30T05:27:58.772Z,0
2017-12-30T05:29:07.597Z,0
2017-12-30T05:30:16.425Z,0
2017-12-30T05:31:25.250Z,0
2017-12-30T05:32:34.074Z,0
2017-12-30T05:33:42.947Z,0
2017-12-30T05:34:51.768Z,0
2017-12-30T05:36:00.594Z,0
2017-12-30T05:37:09.421Z,0
2017-12-30T05:38:18.250Z,0
2017-12-30T05:39:27.073Z,0
2017-12-30T05:40:35.896Z,0
2017-12-30T05:41:44.719Z,0
2017-12-30T05:42:53.843Z,0
2017-12-30T05:44:02.942Z,0
2017-12-30T05:45:12.045Z,0
2017-12-30T05:46:20.869Z,0
2017-12-30T05:47:29.691Z,0
2017-12-30T05:48:38.892Z,0
2017-12-30T05:49:47.714Z,0
2017-12-30T05:50:56.542Z,0
2017-12-30T05:52:05.365Z,0
2017-12-30T05:53:14.189Z,0
2017-12-30T05:54:23.163Z,0
2017-12-30T05:55:31.987Z,0
2017-12-30T05:56:40.812Z,0
2017-12-30T05:57:49.636Z,0
2017-12-30T05:58:58.462Z,0
2017-12-30T06:00:07.589Z,0
2017-12-30T06:01:16.423Z,0
2017-12-30T06:02:25.520Z,0
2017-12-30T06:03:34.343Z,0
2017-12-30T06:04:43.169Z,0
2017-12-30T06:05:51.992Z,0
2017-12-30T06:07:00.816Z,0
2017-12-30T06:08:09.641Z,0
2017-12-30T06:09:18.466Z,0
2017-12-30T06:10:27.290Z,0
2017-12-30T06:11:36.114Z,0
2017-12-30T06:12:44.938Z,0
2017-12-30T06:13:53.762Z,0
2017-12-30T06:15:02.587Z,0
2017-12-30T06:16:11.411Z,0
2017-12-30T06:17:20.580Z,0
2017-12-30T06:18:29.362Z,0
2017-12-30T06:19:38.187Z,0
2017-12-30T06:20:47.281Z,0
2017-12-30T06:21:56.104Z,0
2017-12-30T06:23:04.933Z,0
2017-12-30T06:24:14.030Z,0
2017-12-30T06:25:23.126Z,0
2017-12-30T06:26:31.949Z,0
2017-12-30T06:27:40.775Z,0
2017-12-30T06:28:49.649Z,0
2017-12-30T06:29:58.481Z,0
2017-12-30T06:31:07.302Z,0
2017-12-30T06:32:16.127Z,0
2017-12-30T06:33:24.949Z,0
2017-12-30T06:34:33.924Z,0
2017-12-30T06:35:42.748Z,0
2017-12-30T06:36:51.572Z,0
2017-12-30T06:38:00.395Z,0
2017-12-30T06:39:09.219Z,0
2017-12-30T06:40:18.247Z,0
2017-12-30T06:41:27.096Z,0
2017-12-30T06:42:35.894Z,0
2017-12-30T06:43:44.719Z,0
2017-12-30T06:44:53.543Z,0
2017-12-30T06:46:02.670Z,0
2017-12-30T06:47:11.494Z,0
2017-12-30T06:48:20.317Z,0
2017-12-30T06:49:29.138Z,0
2017-12-30T06:50:37.962Z,0
2017-12-30T06:51:46.991Z,0
2017-12-30T06:52:55.819Z,0
2017-12-30T06:54:04.638Z,0
2017-12-30T06:55:13.464Z,0
2017-12-30T06:56:22.288Z,0
2017-12-30T06:57:31.387Z,0
2017-12-30T06:58:40.213Z,0
2017-12-30T06:59:49.043Z,0
2017-12-30T07:00:57.862Z,0
2017-12-30T07:02:06.683Z,0
2017-12-30T07:03:15.509Z,0
2017-12-30T07:04:24.637Z,0
2017-12-30T07:05:33.467Z,0
2017-12-30T07:06:42.563Z,0
2017-12-30T07:07:51.391Z,0
2017-12-30T07:09:00.264Z,0
2017-12-30T07:10:09.089Z,0
2017-12-30T07:11:17.911Z,0
2017-12-30T07:12:26.738Z,0
2017-12-30T07:13:35.560Z,0
2017-12-30T07:14:44.384Z,0
2017-12-30T07:15:53.240Z,0
2017-12-30T07:17:02.067Z,0
2017-12-30T07:18:10.857Z,0
2017-12-30T07:19:19.680Z,0
2017-12-30T07:20:28.804Z,0
2017-12-30T07:21:37.631Z,0
2017-12-30T07:22:46.452Z,0
2017-12-30T07:23:55.279Z,0
2017-12-30T07:25:04.115Z,0
2017-12-30T07:26:13.364Z,0
2017-12-30T07:27:22.188Z,0
2017-12-30T07:28:31.011Z,0
2017-12-30T07:29:39.836Z,0
2017-12-30T07:30:48.657Z,0
2017-12-30T07:31:57.583Z,0
2017-12-30T07:33:06.410Z,0
2017-12-30T07:34:15.233Z,0
2017-12-30T07:35:24.059Z,0
2017-12-30T07:36:32.880Z,0
2017-12-30T07:37:42.007Z,0
2017-12-30T07:38:50.832Z,0
2017-12-30T07:39:59.656Z,0
2017-12-30T07:41:08.483Z,0
2017-12-30T07:42:17.310Z,0
2017-12-30T07:43:26.185Z,0
2017-12-30T07:44:35.011Z,0
2017-12-30T07:45:43.929Z,0
2017-12-30T07:46:53.029Z,0
2017-12-30T07:48:01.853Z,0
2017-12-30T07:49:10.677Z,0
2017-12-30T07:50:19.605Z,5
2017-12-30T07:51:28.431Z,5
2017-12-30T07:52:37.258Z,5
2017-12-30T07:53:46.355Z,5
2017-12-30T07:54:55.180Z,5
2017-12-30T07:56:04.006Z,5
2017-12-30T07:57:12.831Z,5
2017-12-30T07:58:21.659Z,5
2017-12-30T07:59:30.482Z,5
2017-12-30T08:00:39.457Z,10
2017-12-30T08:01:48.555Z,10
2017-12-30T08:02:57.388Z,10
2017-12-30T08:04:06.487Z,10
2017-12-30T08:05:15.315Z,15
2017-12-30T08:06:24.290Z,15
2017-12-30T08:07:33.115Z,15
2017-12-30T08:08:41.941Z,15
2017-12-30T08:09:50.764Z,15
2017-12-30T08:10:59.592Z,15
2017-12-30T08:12:08.468Z,15
2017-12-30T08:13:17.294Z,15
2017-12-30T08:14:26.392Z,15
2017-12-30T08:15:35.217Z,20
2017-12-30T08:16:44.327Z,20
2017-12-30T08:17:53.569Z,20
2017-12-30T08:19:02.395Z,25
2017-12-30T08:20:11.222Z,25
2017-12-30T08:21:20.047Z,20
2017-12-30T08:22:28.873Z,20
2017-12-30T08:23:37.798Z,20
2017-12-30T08:24:46.624Z,20
2017-12-30T08:25:55.448Z,20
2017-12-30T08:27:04.271Z,20
2017-12-30T08:28:13.095Z,25
2017-12-30T08:29:22.169Z,20
2017-12-30T08:30:30.994Z,20
2017-12-30T08:31:39.824Z,20
2017-12-30T08:32:48.651Z,20
2017-12-30T08:33:57.474Z,15
2017-12-30T08:35:06.599Z,15
2017-12-30T08:36:15.426Z,15
2017-12-30T08:37:24.251Z,15
2017-12-30T08:38:33.076Z,15
2017-12-30T08:39:41.902Z,15
2017-12-30T08:40:51.026Z,15
2017-12-30T08:41:59.850Z,15
2017-12-30T08:43:08.675Z,15
2017-12-30T08:44:17.498Z,15
2017-12-30T08:45:26.323Z,15
2017-12-30T08:46:35.397Z,15
2017-12-30T08:47:44.226Z,20
2017-12-30T08:48:53.047Z,20
2017-12-30T08:50:02.146Z,25
2017-12-30T08:51:10.969Z,25
2017-12-30T08:52:19.944Z,25
2017-12-30T08:53:28.769Z,25
2017-12-30T08:54:37.597Z,25
2017-12-30T08:55:46.695Z,30
2017-12-30T08:56:55.520Z,30
2017-12-30T08:58:04.590Z,35
2017-12-30T08:59:13.420Z,35
2017-12-30T09:00:22.519Z,40
2017-12-30T09:01:31.343Z,40
2017-12-30T09:02:40.170Z,45
2017-12-30T09:03:48.995Z,45
2017-12-30T09:04:57.820Z,40
2017-12-30T09:06:06.644Z,40
2017-12-30T09:07:15.470Z,40
2017-12-30T09:08:24.297Z,35
2017-12-30T09:09:33.493Z,35
2017-12-30T09:10:42.319Z,30
2017-12-30T09:11:51.430Z,30
2017-12-30T09:13:00.255Z,30
2017-12-30T09:14:09.081Z,35
2017-12-30T09:15:18.058Z,40
2017-12-30T09:16:26.933Z,45
2017-12-30T09:17:35.758Z,45
2017-12-30T09:18:44.708Z,40
2017-12-30T09:19:53.417Z,40
2017-12-30T09:21:02.565Z,35
2017-12-30T09:22:11.386Z,30
2017-12-30T09:23:20.210Z,30
2017-12-30T09:24:29.035Z,30
2017-12-30T09:25:38.138Z,30
2017-12-30T09:26:46.963Z,25
2017-12-30T09:27:55.793Z,20
2017-12-30T09:29:04.887Z,20
2017-12-30T09:30:13.710Z,15
2017-12-30T09:31:22.538Z,15
2017-12-30T09:32:31.662Z,15
2017-12-30T09:33:40.488Z,15
2017-12-30T09:34:49.313Z,20
2017-12-30T09:35:58.143Z,25
2017-12-30T09:37:06.967Z,30
2017-12-30T09:38:16.112Z,35
2017-12-30T09:39:24.936Z,40
2017-12-30T09:40:33.761Z,45
2017-12-30T09:41:42.587Z,45
2017-12-30T09:42:51.410Z,50
2017-12-30T09:44:00.610Z,50
2017-12-30T09:45:09.436Z,50
2017-12-30T09:46:18.258Z,50
2017-12-30T09:47:27.082Z,50
2017-12-30T09:48:36.187Z,50
2017-12-30T09:49:45.013Z,55
2017-12-30T09:50:53.881Z,60
2017-12-30T09:52:02.662Z,65
2017-12-30T09:53:11.490Z,70
2017-12-30T09:54:20.312Z,75
2017-12-30T09:55:29.638Z,70
2017-12-30T09:56:38.460Z,65
2017-12-30T09:57:47.289Z,65
2017-12-30T09:58:56.384Z,75
2017-12-30T10:00:05.208Z,85
2017-12-30T10:01:14.183Z,90
2017-12-30T10:02:23.057Z,90
2017-12-30T10:03:31.880Z,80
2017-12-30T10:04:40.708Z,85
2017-12-30T10:05:49.531Z,90
2017-12-30T10:06:58.505Z,95
2017-12-30T10:08:07.329Z,95
2017-12-30T10:09:16.155Z,95
2017-12-30T10:10:24.981Z,85
2017-12-30T10:11:33.808Z,85
2017-12-30T10:12:43.056Z,85
2017-12-30T10:13:51.878Z,90
2017-12-30T10:15:00.704Z,95
2017-12-30T10:16:09.527Z,100
2017-12-30T10:17:18.354Z,100
2017-12-30T10:18:27.232Z,95
2017-12-30T10:19:36.053Z,100
2017-12-30T10:20:44.875Z,110
2017-12-30T10:21:53.976Z,120
2017-12-30T10:23:02.799Z,125
2017-12-30T10:24:12.001Z,125
2017-12-30T10:25:20.774Z,120
2017-12-30T10:26:29.599Z,100
2017-12-30T10:27:38.424Z,85
2017-12-30T10:28:47.527Z,75
2017-12-30T10:29:56.451Z,70
2017-12-30T10:31:05.277Z,75
2017-12-30T10:32:14.103Z,95
2017-12-30T10:33:22.926Z,95
2017-12-30T10:34:31.752Z,80
2017-12-30T10:35:40.576Z,80
2017-12-30T10:36:49.401Z,65
2017-12-30T10:37:58.225Z,55
2017-12-30T10:39:07.051Z,50
2017-12-30T10:40:15.875Z,55
2017-12-30T10:41:24.854Z,55
2017-12-30T10:42:33.679Z,65
2017-12-30T10:43:42.503Z,75
2017-12-30T10:44:51.328Z,75
2017-12-30T10:46:00.153Z,75
2017-12-30T10:47:09.028Z,75
2017-12-30T10:48:17.852Z,70
2017-12-30T10:49:26.678Z,80
2017-12-30T10:50:35.506Z,85
2017-12-30T10:51:44.331Z,90
2017-12-30T10:52:53.158Z,90
2017-12-30T10:54:01.984Z,90
2017-12-30T10:55:10.812Z,85
2017-12-30T10:56:19.632Z,95
2017-12-30T10:57:28.459Z,95
2017-12-30T10:58:37.432Z,100
2017-12-30T10:59:46.530Z,90
2017-12-30T11:00:55.353Z,100
2017-12-30T11:02:04.178Z,100
2017-12-30T11:03:13.278Z,100
2017-12-30T11:04:22.632Z,105
2017-12-30T11:05:31.454Z,105
2017-12-30T11:06:40.274Z,110
2017-12-30T11:07:49.107Z,100
2017-12-30T11:08:57.926Z,100
2017-12-30T11:10:06.799Z,105
2017-12-30T11:11:15.624Z,95
2017-12-30T11:12:24.451Z,90
2017-12-30T11:13:33.275Z,85
2017-12-30T11:14:42.099Z,75
2017-12-30T11:15:51.023Z,55
2017-12-30T11:16:59.857Z,60
2017-12-30T11:18:08.683Z,70
2017-12-30T11:19:17.566Z,85
2017-12-30T11:20:26.330Z,80
2017-12-30T11:21:35.257Z,80
2017-12-30T11:22:44.083Z,80
2017-12-30T11:23:52.906Z,85
2017-12-30T11:25:01.733Z,70
2017-12-30T11:26:10.555Z,80
2017-12-30T11:27:19.428Z,85
2017-12-30T11:28:28.256Z,105
2017-12-30T11:29:37.349Z,95
2017-12-30T11:30:46.172Z,90
2017-12-30T11:31:54.996Z,95
2017-12-30T11:33:03.969Z,80
2017-12-30T11:34:12.794Z,75
2017-12-30T11:35:21.619Z,70
2017-12-30T11:36:30.444Z,70
2017-12-30T11:37:39.267Z,65
2017-12-30T11:38:48.091Z,80
2017-12-30T11:39:56.912Z,80
2017-12-30T11:41:05.738Z,85
2017-12-30T11:42:14.562Z,90
2017-12-30T11:43:23.658Z,75
2017-12-30T11:44:32.586Z,70
2017-12-30T11:45:41.411Z,65
2017-12-30T11:46:50.238Z,65
2017-12-30T11:47:59.337Z,65
2017-12-30T11:49:08.160Z,70
2017-12-30T11:50:17.287Z,65
2017-12-30T11:51:26.116Z,70
2017-12-30T11:52:34.937Z,85
2017-12-30T11:53:43.761Z,95
2017-12-30T11:54:52.585Z,100
2017-12-30T11:56:01.559Z,110
2017-12-30T11:57:10.386Z,120
2017-12-30T11:58:19.213Z,105
2017-12-30T11:59:28.036Z,95
2017-12-30T12:00:36.862Z,90
2017-12-30T12:01:45.787Z,75
2017-12-30T12:02:54.887Z,75
2017-12-30T12:04:03.722Z,75
2017-12-30T12:05:12.817Z,70
2017-12-30T12:06:21.641Z,70
2017-12-30T12:07:30.717Z,75
2017-12-30T12:08:39.540Z,80
2017-12-30T12:09:48.366Z,80
2017-12-30T12:10:57.189Z,75
2017-12-30T12:12:06.013Z,70
2017-12-30T12:13:14.886Z,65
2017-12-30T12:14:23.811Z,60
2017-12-30T12:15:32.638Z,55
2017-12-30T12:16:41.464Z,45
2017-12-30T12:17:50.289Z,60
2017-12-30T12:18:59.114Z,65
2017-12-30T12:20:07.939Z,90
2017-12-30T12:21:16.759Z,85
2017-12-30T12:22:25.633Z,65
2017-12-30T12:23:34.680Z,60
2017-12-30T12:24:43.505Z,60
2017-12-30T12:25:52.330Z,50
2017-12-30T12:27:01.156Z,55
2017-12-30T12:28:09.980Z,60
2017-12-30T12:29:18.805Z,55
2017-12-30T12:30:27.629Z,50
2017-12-30T12:31:36.456Z,65
2017-12-30T12:32:45.281Z,55
2017-12-30T12:33:54.104Z,65
2017-12-30T12:35:02.927Z,75
2017-12-30T12:36:11.802Z,60
2017-12-30T12:37:20.626Z,55
2017-12-30T12:38:29.453Z,45
2017-12-30T12:39:38.550Z,65
2017-12-30T12:40:47.377Z,65
2017-12-30T12:41:56.351Z,65
2017-12-30T12:43:05.177Z,60
2017-12-30T12:44:14.003Z,60
2017-12-30T12:45:22.830Z,50
2017-12-30T12:46:31.655Z,60
2017-12-30T12:47:40.631Z,60
2017-12-30T12:48:49.454Z,65
2017-12-30T12:49:58.280Z,70
2017-12-30T12:51:07.424Z,75
2017-12-30T12:52:16.249Z,75
2017-12-30T12:53:25.223Z,75
2017-12-30T12:54:34.047Z,75
2017-12-30T12:55:42.877Z,90
2017-12-30T12:56:51.696Z,85
2017-12-30T12:58:00.523Z,75
2017-12-30T12:59:09.397Z,55
2017-12-30T13:00:18.224Z,40
2017-12-30T13:01:27.049Z,40
2017-12-30T13:02:35.876Z,40
2017-12-30T13:03:44.700Z,45
2017-12-30T13:04:53.778Z,50
2017-12-30T13:06:02.602Z,55
2017-12-30T13:07:11.428Z,50
2017-12-30T13:08:20.253Z,60
2017-12-30T13:09:29.080Z,70
2017-12-30T13:10:37.905Z,85
2017-12-30T13:11:46.729Z,75
2017-12-30T13:12:55.832Z,70
2017-12-30T13:14:05.103Z,70
2017-12-30T13:15:13.486Z,50
2017-12-30T13:16:22.688Z,40
2017-12-30T13:17:31.782Z,40
2017-12-30T13:18:40.611Z,55
2017-12-30T13:19:49.711Z,60
2017-12-30T13:20:58.535Z,90
2017-12-30T13:22:07.359Z,95
2017-12-30T13:23:16.185Z,90
2017-12-30T13:24:25.286Z,65
2017-12-30T13:25:34.112Z,45
2017-12-30T13:26:43.265Z,45
2017-12-30T13:27:52.042Z,55
2017-12-30T13:29:00.866Z,60
2017-12-30T13:30:09.694Z,35
2017-12-30T13:31:18.518Z,40
2017-12-30T13:32:27.619Z,40
2017-12-30T13:33:36.493Z,30
2017-12-30T13:34:45.323Z,30
2017-12-30T13:35:54.147Z,35
2017-12-30T13:37:02.972Z,30
2017-12-30T13:38:11.798Z,25
2017-12-30T13:39:21.082Z,30
2017-12-30T13:40:29.873Z,35
2017-12-30T13:41:38.698Z,35
2017-12-30T13:42:47.802Z,30
2017-12-30T13:43:56.906Z,25
2017-12-30T13:45:06.031Z,25
2017-12-30T13:46:14.858Z,20
2017-12-30T13:47:23.680Z,15
2017-12-30T13:48:32.505Z,15
2017-12-30T13:49:41.330Z,15
2017-12-30T13:50:50.158Z,10
2017-12-30T13:51:58.985Z,10
2017-12-30T13:53:07.808Z,10
2017-12-30T13:54:16.636Z,15
2017-12-30T13:55:25.460Z,20
2017-12-30T13:56:34.436Z,25
2017-12-30T13:57:43.261Z,35
2017-12-30T13:58:52.089Z,20
2017-12-30T14:00:00.914Z,15
2017-12-30T14:01:09.743Z,20
2017-12-30T14:02:18.669Z,25
2017-12-30T14:03:27.811Z,25
2017-12-30T14:04:36.601Z,20
2017-12-30T14:05:45.427Z,20
2017-12-30T14:06:54.253Z,30
2017-12-30T14:08:03.464Z,40
2017-12-30T14:09:12.291Z,50
2017-12-30T14:10:21.118Z,50
2017-12-30T14:11:29.975Z,50
2017-12-30T14:12:39.043Z,60
2017-12-30T14:13:47.868Z,60
2017-12-30T14:14:56.693Z,55
2017-12-30T14:16:05.516Z,50
2017-12-30T14:17:14.342Z,45
2017-12-30T14:18:23.169Z,30
2017-12-30T14:19:31.996Z,25
2017-12-30T14:20:41.101Z,20
2017-12-30T14:21:49.926Z,25
2017-12-30T14:22:58.752Z,25
2017-12-30T14:24:07.578Z,25
2017-12-30T14:25:48.499Z,20
2017-12-30T14:26:57.291Z,15
2017-12-30T14:28:06.388Z,15
2017-12-30T14:29:15.213Z,20
2017-12-30T14:30:24.365Z,25
2017-12-30T14:31:33.469Z,25
2017-12-30T14:32:42.298Z,25
2017-12-30T14:33:51.125Z,25
2017-12-30T14:34:59.954Z,25
2017-12-30T14:36:08.781Z,20
2017-12-30T14:37:17.607Z,15
2017-12-30T14:38:26.459Z,10
2017-12-30T14:39:35.259Z,10
2017-12-30T14:40:44.087Z,10
2017-12-30T14:41:53.065Z,10
2017-12-30T14:43:01.891Z,10
2017-12-30T14:44:10.719Z,10
2017-12-30T14:45:19.544Z,15
2017-12-30T14:46:28.372Z,15
2017-12-30T14:47:37.299Z,10
2017-12-30T14:48:46.126Z,15
2017-12-30T14:49:54.955Z,10
2017-12-30T14:51:03.784Z,10
2017-12-30T14:52:12.614Z,15
2017-12-30T14:53:21.590Z,10
2017-12-30T14:54:30.415Z,5
2017-12-30T14:55:39.242Z,5
2017-12-30T14:56:48.071Z,5
2017-12-30T14:57:56.896Z,5
2017-12-30T14:59:05.775Z,5
2017-12-30T15:00:14.610Z,5
2017-12-30T15:01:23.441Z,5
2017-12-30T15:02:32.272Z,5
2017-12-30T15:03:41.098Z,0
2017-12-30T15:04:49.927Z,5
2017-12-30T15:05:59.035Z,0
2017-12-30T15:07:08.179Z,0
2017-12-30T15:08:16.958Z,0
2017-12-30T15:09:25.787Z,0
2017-12-30T15:10:34.990Z,0
2017-12-30T15:11:43.819Z,0
2017-12-30T15:12:52.645Z,0
2017-12-30T15:14:01.474Z,0
2017-12-30T15:15:10.576Z,0
2017-12-30T15:16:19.503Z,0
2017-12-30T15:17:28.330Z,0
2017-12-30T15:18:37.156Z,0
2017-12-30T15:19:45.985Z,0
2017-12-30T15:20:54.813Z,0
2017-12-30T15:22:03.647Z,0
2017-12-30T15:23:12.473Z,0
2017-12-30T15:24:21.300Z,0
2017-12-30T15:25:30.131Z,0
2017-12-30T15:26:38.957Z,0
2017-12-30T15:27:47.786Z,0
2017-12-30T15:28:56.657Z,0
2017-12-30T15:30:05.443Z,0
2017-12-30T15:31:14.270Z,0
2017-12-30T15:32:23.098Z,0
2017-12-30T15:33:31.979Z,0
2017-12-30T15:34:40.805Z,0
2017-12-30T15:35:49.634Z,0
2017-12-30T15:36:58.464Z,0
2017-12-30T15:38:07.292Z,0
2017-12-30T15:39:16.394Z,0
2017-12-30T15:40:25.223Z,0
2017-12-30T15:41:34.327Z,0
2017-12-30T15:42:43.155Z,0
2017-12-30T15:43:51.993Z,0
2017-12-30T15:45:00.859Z,0
2017-12-30T15:46:09.687Z,0
2017-12-30T15:47:18.524Z,0
2017-12-30T15:48:27.346Z,0
2017-12-30T15:49:36.175Z,0
2017-12-30T15:50:45.103Z,0
2017-12-30T15:51:53.929Z,0
2017-12-30T15:53:02.758Z,0
2017-12-30T15:54:11.583Z,0
2017-12-30T15:55:20.415Z,0
2017-12-30T15:56:29.288Z,0
2017-12-30T15:57:38.115Z,0
2017-12-30T15:58:46.952Z,0
2017-12-30T15:59:56.051Z,0
2017-12-30T16:01:04.925Z,0
2017-12-30T16:02:13.799Z,0
2017-12-30T16:03:22.585Z,0
2017-12-30T16:04:31.700Z,0
2017-12-30T16:05:40.529Z,0
2017-12-30T16:06:49.357Z,0
2017-12-30T16:07:58.333Z,0
2017-12-30T16:09:07.166Z,0
2017-12-30T16:10:15.994Z,0
2017-12-30T16:11:24.823Z,0
2017-12-30T16:12:33.654Z,0
2017-12-30T16:13:42.634Z,0
2017-12-30T16:14:51.462Z,0
2017-12-30T16:16:00.290Z,0
2017-12-30T16:17:09.118Z,0
2017-12-30T16:18:17.946Z,0
2017-12-30T16:19:26.823Z,0
2017-12-30T16:20:35.652Z,0
2017-12-30T16:21:44.481Z,0
2017-12-30T16:22:53.312Z,0
2017-12-30T16:24:02.137Z,0
2017-12-30T16:25:11.018Z,0
2017-12-30T16:26:19.848Z,0
2017-12-30T16:27:28.676Z,0
2017-12-30T16:28:37.779Z,0
2017-12-30T16:29:46.615Z,0
2017-12-30T16:30:55.965Z,0
2017-12-30T16:32:04.793Z,0
2017-12-30T16:33:13.620Z,0
2017-12-30T16:34:22.448Z,0
2017-12-30T16:35:31.276Z,0
2017-12-30T16:36:40.475Z,0
2017-12-30T16:37:49.406Z,0
2017-12-30T16:38:58.233Z,0
2017-12-30T16:40:07.059Z,0
2017-12-30T16:41:15.890Z,0
2017-12-30T16:42:24.817Z,0
2017-12-30T16:43:33.646Z,0